Time;durP1;ratioP1;P1;durP2;ratioP2;P2;SDS_P1;SDS_P2;PMS_P1;PMS_P2;Temp;Humidity;BMP_temperature;BMP_pressure;BME280_temperature;BME280_humidity;BME280_pressure;Samples;Min_cycle;Max_cycle;Signal;HPM_P1;HPM_P2
2021/09/01 00:01:16;;;;;;;13.52;7.68;;;;;;;18.00;56.77;99083.00;5074406;28;20025;-50
2021/09/01 00:03:42;;;;;;;9.23;5.22;;;;;;;17.92;56.86;99081.53;5074451;28;20095;-50
2021/09/01 00:06:08;;;;;;;10.73;9.70;;;;;;;17.90;57.28;99084.44;5072998;28;20025;-50
2021/09/01 00:08:34;;;;;;;10.50;6.45;;;;;;;17.89;57.07;99082.84;5074235;28;20052;-49
2021/09/01 00:11:00;;;;;;;8.52;6.20;;;;;;;17.86;57.71;99087.81;5074283;28;20031;-50
2021/09/01 00:13:26;;;;;;;12.80;10.27;;;;;;;17.76;57.44;99081.22;5072985;28;20040;-50
2021/09/01 00:15:51;;;;;;;8.40;6.55;;;;;;;17.54;57.88;99078.41;5072695;28;20479;-50
2021/09/01 00:18:20;;;;;;;8.40;6.60;;;;;;;17.44;58.61;99069.47;5072869;28;20501;-50
2021/09/01 00:20:46;;;;;;;6.15;5.20;;;;;;;17.35;58.10;99061.09;5073739;28;20033;-50
2021/09/01 00:23:14;;;;;;;8.85;6.15;;;;;;;16.90;58.81;99078.47;5073417;28;20082;-50
2021/09/01 00:25:42;;;;;;;8.85;7.72;;;;;;;16.73;60.36;99078.31;5073978;28;20021;-50
2021/09/01 00:28:08;;;;;;;8.63;6.10;;;;;;;17.06;60.32;99079.56;5072640;28;20021;-50
2021/09/01 00:30:34;;;;;;;21.50;19.20;;;;;;;17.38;59.58;99081.81;5073881;28;20032;-50
2021/09/01 00:33:00;;;;;;;38.85;34.08;;;;;;;17.66;58.92;99082.91;5073903;28;20024;-50
2021/09/01 00:35:26;;;;;;;12.05;9.82;;;;;;;17.84;58.20;99077.41;5073817;28;20069;-50
2021/09/01 00:37:51;;;;;;;12.02;10.00;;;;;;;17.93;57.53;99085.81;5073905;28;20059;-50
2021/09/01 00:40:17;;;;;;;8.65;7.07;;;;;;;17.83;57.41;99090.91;5073728;28;20040;-50
2021/09/01 00:42:43;;;;;;;9.63;6.38;;;;;;;17.76;57.51;99086.53;5073760;28;20482;-50
2021/09/01 00:45:09;;;;;;;10.25;9.15;;;;;;;17.51;57.66;99086.88;5073657;28;20543;-50
2021/09/01 00:47:39;;;;;;;7.25;6.55;;;;;;;16.99;58.52;99086.06;5072371;28;20032;-50
2021/09/01 00:50:07;;;;;;;22.60;19.45;;;;;;;16.54;60.03;99090.03;5072149;28;20032;-50
2021/09/01 00:52:40;;;;;;;7.35;5.70;;;;;;;16.49;60.41;99080.13;5073539;28;20391;-50
2021/09/01 00:55:07;;;;;;;8.13;6.72;;;;;;;16.42;60.85;99079.47;5073473;28;20402;-50
2021/09/01 00:57:34;;;;;;;9.57;6.85;;;;;;;16.61;60.74;99071.41;5073380;28;20107;-50
2021/09/01 00:59:59;;;;;;;13.00;11.73;;;;;;;16.65;60.68;99075.22;5073347;28;20508;-50
2021/09/01 01:02:25;;;;;;;10.82;5.82;;;;;;;16.84;60.56;99089.16;5073269;28;20115;-50
2021/09/01 01:04:51;;;;;;;20.52;17.60;;;;;;;16.84;60.19;99092.66;5073315;28;20016;-50
2021/09/01 01:07:16;;;;;;;24.08;21.75;;;;;;;16.91;60.17;99093.31;5073172;28;20486;-50
2021/09/01 01:09:44;;;;;;;11.57;10.38;;;;;;;17.14;59.87;99089.84;5073093;28;20486;-50
2021/09/01 01:12:13;;;;;;;16.95;9.77;;;;;;;17.27;59.20;99080.81;5071745;28;20027;-50
2021/09/01 01:14:41;;;;;;;7.95;5.70;;;;;;;17.48;59.09;99089.97;5073062;28;20016;-50
2021/09/01 01:17:09;;;;;;;7.43;5.80;;;;;;;17.33;57.86;99077.22;5102538;28;20044;-50
2021/09/01 01:19:39;;;;;;;8.18;7.03;;;;;;;16.88;59.02;99085.00;5095245;28;20027;-50
2021/09/01 01:22:05;;;;;;;21.08;18.90;;;;;;;16.65;59.67;99083.16;5113491;28;20545;-50
2021/09/01 01:24:49;;;;;;;29.88;26.75;;;;;;;16.44;60.82;99081.84;5113462;28;20050;-50
2021/09/01 01:27:21;;;;;;;8.43;6.45;;;;;;;16.60;60.61;99097.09;5113453;28;20038;-50
2021/09/01 01:29:47;;;;;;;42.13;38.20;;;;;;;16.83;60.35;99106.13;5094961;28;20621;-50
2021/09/01 01:32:12;;;;;;;11.13;7.47;;;;;;;17.01;59.82;99102.53;5113735;28;20020;-50
2021/09/01 01:34:38;;;;;;;8.45;7.05;;;;;;;17.00;59.12;99100.91;5113280;28;20481;-50
2021/09/01 01:37:08;;;;;;;69.80;62.97;;;;;;;17.00;59.77;99106.22;5113226;28;20065;-50
2021/09/01 01:39:34;;;;;;;14.15;12.65;;;;;;;17.17;59.48;99105.28;5113205;28;20058;-50
2021/09/01 01:42:00;;;;;;;15.60;11.65;;;;;;;17.43;59.03;99111.13;5113139;28;20023;-50
2021/09/01 01:44:25;;;;;;;13.13;8.05;;;;;;;17.56;58.38;99110.03;5111744;28;20059;-50
2021/09/01 01:46:51;;;;;;;8.75;7.78;;;;;;;17.57;57.47;99115.13;5094671;28;20030;-50
2021/09/01 01:49:18;;;;;;;14.85;11.10;;;;;;;17.40;58.06;99110.78;5112916;28;20024;-50
2021/09/01 01:51:49;;;;;;;7.97;5.50;;;;;;;17.22;57.94;99109.88;5111630;28;20102;-50
2021/09/01 01:54:14;;;;;;;12.65;8.70;;;;;;;16.75;58.67;99116.00;5094674;28;20043;-51
2021/09/01 01:56:40;;;;;;;59.05;53.33;;;;;;;16.56;60.17;99117.94;5113099;28;20426;-50
2021/09/01 01:59:06;;;;;;;21.73;19.35;;;;;;;16.75;59.96;99123.94;5112867;28;20030;-50
2021/09/01 02:01:31;;;;;;;17.17;15.52;;;;;;;16.93;59.28;99120.41;5112768;28;20047;-50
2021/09/01 02:03:57;;;;;;;26.58;23.92;;;;;;;16.93;59.27;99128.34;5112727;28;20020;-50
2021/09/01 02:06:23;;;;;;;57.70;52.55;;;;;;;16.93;59.02;99122.25;5112757;28;20031;-50
2021/09/01 02:08:48;;;;;;;15.02;13.32;;;;;;;16.82;58.97;99123.88;5111258;28;20023;-50
2021/09/01 02:11:14;;;;;;;50.53;45.53;;;;;;;16.75;59.45;99123.94;5112529;28;20038;-50
2021/09/01 02:13:40;;;;;;;109.30;98.63;;;;;;;16.72;59.45;99120.94;5111286;28;20116;-50
2021/09/01 02:16:05;;;;;;;95.13;85.80;;;;;;;16.76;59.51;99127.38;5110905;28;20051;-50
2021/09/01 02:18:31;;;;;;;60.10;54.72;;;;;;;16.84;59.20;99120.97;5112513;28;20061;-50
2021/09/01 02:20:57;;;;;;;232.70;209.65;;;;;;;16.90;59.12;99118.22;5112444;28;20019;-50
2021/09/01 02:23:22;;;;;;;41.53;36.97;;;;;;;17.08;58.76;99122.59;5112413;28;20065;-50
2021/09/01 02:25:48;;;;;;;26.27;23.58;;;;;;;17.04;58.28;99123.28;5111082;28;20024;-50
2021/09/01 02:28:14;;;;;;;16.58;10.02;;;;;;;16.92;58.48;99132.06;5112377;28;20020;-50
2021/09/01 02:30:39;;;;;;;32.33;29.30;;;;;;;16.82;58.75;99137.13;5110961;28;20022;-50
2021/09/01 02:33:05;;;;;;;44.38;40.40;;;;;;;16.74;58.67;99132.94;5112365;28;20015;-50
2021/09/01 02:35:31;;;;;;;61.92;55.90;;;;;;;16.63;59.09;99139.03;5112274;28;20028;-50
2021/09/01 02:37:57;;;;;;;68.93;62.75;;;;;;;16.54;59.10;99140.38;5112300;28;20531;-51
2021/09/01 02:40:22;;;;;;;54.20;48.95;;;;;;;16.20;59.59;99144.56;5112243;28;20559;-50
2021/09/01 02:42:49;;;;;;;728.50;632.53;;;;;;;15.94;60.92;99149.22;5112186;28;20408;-50
2021/09/01 02:45:17;;;;;;;324.17;291.20;;;;;;;15.78;61.19;99155.91;5093280;28;20027;-50
2021/09/01 02:47:46;;;;;;;55.72;50.00;;;;;;;15.43;61.81;99150.38;5112215;28;20023;-50
2021/09/01 02:50:13;;;;;;;152.07;135.88;;;;;;;15.04;62.52;99150.56;5110721;28;20049;-51
2021/09/01 02:52:39;;;;;;;281.70;253.63;;;;;;;14.94;63.88;99152.91;5112091;28;20639;-50
2021/09/01 02:55:05;;;;;;;40.03;35.92;;;;;;;15.13;63.82;99156.38;5112041;28;20055;-50
2021/09/01 02:57:31;;;;;;;80.78;73.53;;;;;;;15.17;63.24;99150.44;5112067;28;20497;-50
2021/09/01 02:59:56;;;;;;;399.00;359.63;;;;;;;15.21;63.37;99158.72;5093889;28;20057;-50
2021/09/01 03:02:22;;;;;;;456.25;408.42;;;;;;;15.31;63.59;99153.78;5093875;28;20020;-50
2021/09/01 03:04:48;;;;;;;165.98;150.38;;;;;;;15.54;63.20;99153.09;5112008;28;20508;-50
2021/09/01 03:07:13;;;;;;;264.98;237.77;;;;;;;15.68;62.69;99145.81;5110621;28;20012;-50
2021/09/01 03:09:39;;;;;;;41.58;37.40;;;;;;;15.71;62.13;99153.31;5110586;28;20047;-50
2021/09/01 03:12:05;;;;;;;53.42;47.85;;;;;;;15.63;62.34;99161.53;5093630;28;20455;-50
2021/09/01 03:14:31;;;;;;;26.95;24.10;;;;;;;15.61;62.46;99165.44;5093728;28;20065;-50
2021/09/01 03:16:56;;;;;;;15.13;11.35;;;;;;;15.78;62.31;99155.91;5111017;28;20691;-50
2021/09/01 03:19:23;;;;;;;31.42;28.30;;;;;;;16.05;61.77;99155.56;5077096;28;20102;-50
2021/09/01 03:21:50;;;;;;;24.65;22.00;;;;;;;16.04;61.25;99156.63;5071316;28;20029;-50
2021/09/01 03:24:16;;;;;;;14.18;7.68;;;;;;;16.05;61.46;99156.38;5071280;28;20020;-50
2021/09/01 03:26:42;;;;;;;27.17;24.60;;;;;;;15.84;61.24;99155.03;5071245;28;20036;-50
2021/09/01 03:29:08;;;;;;;13.77;10.25;;;;;;;15.87;61.78;99154.56;5069889;28;20025;-50
2021/09/01 03:31:34;;;;;;;37.17;33.28;;;;;;;16.10;61.47;99163.66;5071183;28;20035;-50
2021/09/01 03:33:59;;;;;;;13.27;11.88;;;;;;;16.28;61.05;99168.06;5069874;28;20091;-50
2021/09/01 03:36:25;;;;;;;62.63;56.67;;;;;;;16.43;60.51;99168.47;5069845;28;20398;-50
2021/09/01 03:38:51;;;;;;;20.48;15.25;;;;;;;16.44;60.01;99162.16;5069790;28;20028;-50
2021/09/01 03:41:17;;;;;;;24.23;8.80;;;;;;;16.21;60.12;99157.59;5069823;28;20032;-50
2021/09/01 03:43:43;;;;;;;27.67;22.65;;;;;;;16.11;60.60;99158.13;5071122;28;20020;-50
2021/09/01 03:46:08;;;;;;;17.67;10.27;;;;;;;16.23;60.58;99160.00;5069787;28;20044;-51
2021/09/01 03:48:34;;;;;;;12.32;8.15;;;;;;;16.31;60.27;99157.03;5071005;28;20405;-50
2021/09/01 03:51:00;;;;;;;15.95;7.20;;;;;;;16.40;59.94;99165.47;5071034;28;20479;-50
2021/09/01 03:53:26;;;;;;;23.58;21.48;;;;;;;16.41;59.30;99159.94;5070950;28;20410;-50
2021/09/01 03:55:52;;;;;;;18.50;11.40;;;;;;;16.18;59.58;99160.69;5052957;28;20032;-50
2021/09/01 03:58:18;;;;;;;21.55;7.43;;;;;;;16.00;60.04;99160.72;5074074;28;20013;-50
2021/09/01 04:00:44;;;;;;;15.23;6.38;;;;;;;16.05;60.72;99164.31;5074469;28;20560;-50
2021/09/01 04:03:10;;;;;;;8.38;5.70;;;;;;;16.00;60.13;99163.38;5074496;28;20020;-50
2021/09/01 04:05:35;;;;;;;16.23;6.45;;;;;;;15.57;60.91;99163.25;5074355;28;20040;-50
2021/09/01 04:08:02;;;;;;;48.92;44.13;;;;;;;15.26;61.65;99166.84;5072993;28;20116;-50
2021/09/01 04:10:27;;;;;;;7.35;6.28;;;;;;;15.31;62.23;99167.00;5074259;28;20083;-50
2021/09/01 04:12:54;;;;;;;12.85;5.82;;;;;;;15.37;61.93;99168.75;5074319;28;20024;-50
2021/09/01 04:15:19;;;;;;;10.73;5.53;;;;;;;15.48;62.25;99169.06;5072895;28;20028;-50
2021/09/01 04:17:45;;;;;;;15.30;6.85;;;;;;;15.67;61.79;99167.22;5074161;28;20041;-50
2021/09/01 04:20:11;;;;;;;10.23;6.30;;;;;;;15.66;61.48;99166.41;5112379;28;20051;-50
2021/09/01 04:22:37;;;;;;;10.70;6.18;;;;;;;15.66;61.16;99161.13;5096414;28;20047;-50
2021/09/01 04:25:03;;;;;;;13.30;7.60;;;;;;;15.34;61.30;99171.84;5096363;28;20024;-50
2021/09/01 04:27:29;;;;;;;10.70;6.20;;;;;;;14.95;62.23;99171.19;5114672;28;20020;-50
2021/09/01 04:29:55;;;;;;;12.90;6.15;;;;;;;14.95;62.95;99165.91;5096133;28;20103;-50
2021/09/01 04:32:21;;;;;;;9.60;6.60;;;;;;;14.92;62.62;99171.59;5096196;28;20585;-50
2021/09/01 04:34:47;;;;;;;11.07;6.15;;;;;;;14.84;63.28;99168.44;5114502;28;20035;-50
2021/09/01 04:37:12;;;;;;;31.40;28.20;;;;;;;15.06;63.02;99174.16;5096048;28;20023;-50
2021/09/01 04:39:38;;;;;;;19.55;9.52;;;;;;;15.07;62.63;99162.53;5114373;28;20028;-50
2021/09/01 04:42:04;;;;;;;12.95;7.18;;;;;;;15.06;62.96;99163.56;5114356;28;20024;-50
2021/09/01 04:44:30;;;;;;;11.07;6.25;;;;;;;14.96;62.63;99162.22;5114545;28;20026;-50
2021/09/01 04:46:56;;;;;;;11.90;6.28;;;;;;;14.89;62.94;99171.22;5095873;28;20126;-50
2021/09/01 04:49:22;;;;;;;19.13;7.90;;;;;;;14.80;66.00;99177.81;5114171;28;20046;-50
2021/09/01 04:51:47;;;;;;;13.23;8.43;;;;;;;14.70;67.46;99173.00;5114132;28;20497;-50
2021/09/01 04:54:13;;;;;;;9.77;7.30;;;;;;;14.35;67.97;99176.09;5095805;28;20118;-49
2021/09/01 04:56:39;;;;;;;9.02;7.07;;;;;;;13.89;69.05;99180.56;5095746;28;20024;-49
2021/09/01 04:59:05;;;;;;;39.38;34.45;;;;;;;13.57;69.85;99182.31;5114026;28;20486;-49
2021/09/01 05:01:30;;;;;;;25.88;18.20;;;;;;;13.24;70.71;99180.53;5113976;28;20114;-49
2021/09/01 05:03:56;;;;;;;27.75;21.50;;;;;;;12.84;71.40;99183.19;5112551;28;20468;-49
2021/09/01 05:06:22;;;;;;;44.30;39.55;;;;;;;12.59;72.71;99178.50;5113853;28;20022;-49
2021/09/01 05:08:47;;;;;;;14.55;10.13;;;;;;;12.76;73.10;99178.94;5113278;28;20389;-49
2021/09/01 05:11:13;;;;;;;15.20;10.43;;;;;;;12.83;73.00;99178.13;5112434;28;20019;-49
2021/09/01 05:13:40;;;;;;;24.65;16.05;;;;;;;13.07;73.32;99174.84;5113771;28;20363;-50
2021/09/01 05:16:05;;;;;;;57.17;47.47;;;;;;;13.29;72.19;99177.28;5113681;28;20585;-49
2021/09/01 05:18:31;;;;;;;20.33;11.70;;;;;;;13.62;73.59;99184.31;5103545;28;20139;-49
2021/09/01 05:20:59;;;;;;;13.70;7.93;;;;;;;14.08;72.73;99172.75;5072899;28;20029;-49
2021/09/01 05:23:33;;;;;;;21.23;17.17;;;;;;;14.49;72.23;99177.59;5072993;28;20025;-50
2021/09/01 05:26:01;;;;;;;17.48;8.80;;;;;;;15.07;70.00;99173.09;5071512;28;20116;-50
2021/09/01 05:28:37;;;;;;;217.25;194.30;;;;;;;15.48;67.93;99182.28;5071520;28;20052;-50
2021/09/01 05:31:05;;;;;;;146.13;131.30;;;;;;;15.45;65.56;99180.06;5071501;28;20538;-49
2021/09/01 05:33:33;;;;;;;114.32;96.00;;;;;;;15.75;64.86;99170.41;5071751;28;20031;-50
2021/09/01 05:35:59;;;;;;;218.88;196.25;;;;;;;16.17;63.38;99174.97;5072676;28;20049;-50
2021/09/01 05:38:26;;;;;;;192.05;173.85;;;;;;;16.80;62.10;99183.41;5071305;28;20242;-50
2021/09/01 05:40:53;;;;;;;58.88;44.70;;;;;;;17.51;60.33;99174.44;5072557;28;20020;-50
2021/09/01 05:43:21;;;;;;;16.38;10.00;;;;;;;17.82;57.98;99180.38;5071238;28;20029;-50
2021/09/01 05:45:48;;;;;;;22.35;13.27;;;;;;;17.69;58.53;99178.81;5072497;28;20087;-50
2021/09/01 05:48:17;;;;;;;27.40;20.13;;;;;;;18.32;57.22;99186.91;5072506;28;20146;-50
2021/09/01 05:50:42;;;;;;;13.60;6.60;;;;;;;19.12;54.63;99191.19;5072286;28;20107;-49
2021/09/01 05:53:10;;;;;;;22.58;9.18;;;;;;;19.41;53.68;99191.03;5072315;28;20024;-50
2021/09/01 05:55:42;;;;;;;15.93;8.52;;;;;;;19.74;52.87;99182.19;5072310;28;20097;-50
2021/09/01 05:58:17;;;;;;;15.93;7.72;;;;;;;20.11;52.05;99186.84;5071011;28;20383;-50
2021/09/01 06:00:44;;;;;;;7.57;6.13;;;;;;;20.38;51.16;99178.06;5072258;28;20033;-50
2021/09/01 06:03:32;;;;;;;12.98;7.25;;;;;;;20.63;51.26;99185.53;5072204;28;20110;-50
2021/09/01 06:06:02;;;;;;;15.57;6.20;;;;;;;20.83;50.24;99184.88;5072419;28;20103;-50
2021/09/01 06:08:34;;;;;;;9.73;7.13;;;;;;;21.11;49.05;99182.94;5072124;28;20035;-50
2021/09/01 06:11:07;;;;;;;9.93;6.05;;;;;;;21.37;48.52;99189.25;5072045;28;20424;-50
2021/09/01 06:13:33;;;;;;;11.20;5.80;;;;;;;21.76;47.67;99186.25;5072082;28;20111;-50
2021/09/01 06:16:02;;;;;;;21.15;7.13;;;;;;;22.25;46.03;99179.72;5070703;28;20107;-50
2021/09/01 06:18:28;;;;;;;15.93;6.68;;;;;;;22.33;46.14;99171.19;5081090;28;20096;-50
2021/09/01 06:20:54;;;;;;;14.35;11.02;;;;;;;22.58;45.23;99185.63;5093511;28;20027;-50
2021/09/01 06:23:20;;;;;;;9.18;6.25;;;;;;;23.14;42.90;99185.66;5112516;28;20099;-50
2021/09/01 06:25:46;;;;;;;13.57;6.75;;;;;;;22.83;43.76;99182.16;5094069;28;20051;-51
2021/09/01 06:28:12;;;;;;;17.13;7.10;;;;;;;22.97;44.25;99190.47;5112465;28;20027;-50
2021/09/01 06:30:37;;;;;;;13.40;6.40;;;;;;;23.86;42.67;99196.94;5112283;28;20027;-51
2021/09/01 06:33:04;;;;;;;10.57;6.30;;;;;;;23.94;41.88;99184.84;5112389;28;20015;-50
2021/09/01 06:35:30;;;;;;;13.68;6.55;;;;;;;24.07;42.27;99184.25;5112268;28;20520;-50
2021/09/01 06:37:55;;;;;;;12.90;7.03;;;;;;;24.59;41.84;99187.44;5112321;28;20028;-48
2021/09/01 06:40:21;;;;;;;19.95;7.82;;;;;;;25.15;40.78;99182.63;5112288;28;20042;-48
2021/09/01 06:42:47;;;;;;;140.20;16.25;;;;;;;25.46;40.35;99173.19;5112232;28;20099;-48
2021/09/01 06:45:13;;;;;;;53.22;12.73;;;;;;;25.44;40.73;99171.88;5112199;28;20030;-49
2021/09/01 06:47:45;;;;;;;48.45;10.50;;;;;;;25.43;39.76;99170.25;5110838;28;20023;-48
2021/09/01 06:50:13;;;;;;;29.38;11.55;;;;;;;25.04;40.96;99171.19;5112156;28;20023;-48
2021/09/01 06:52:40;;;;;;;16.67;6.75;;;;;;;25.26;40.53;99158.09;5112135;28;20588;-48
2021/09/01 06:55:07;;;;;;;28.02;8.10;;;;;;;25.74;39.74;99169.91;5093816;28;20035;-48
2021/09/01 06:57:33;;;;;;;21.35;9.63;;;;;;;26.17;38.69;99175.25;5093810;28;20539;-48
2021/09/01 06:59:59;;;;;;;32.15;8.85;;;;;;;26.67;38.17;99172.91;5093797;28;20028;-48
2021/09/01 07:02:25;;;;;;;22.67;7.95;;;;;;;26.67;37.58;99171.00;5112066;28;20292;-48
2021/09/01 07:04:51;;;;;;;13.70;7.25;;;;;;;26.63;37.82;99172.69;5112025;28;20049;-49
2021/09/01 07:07:16;;;;;;;18.75;11.55;;;;;;;27.09;36.45;99174.56;5093674;28;20523;-48
2021/09/01 07:09:42;;;;;;;20.10;7.40;;;;;;;27.34;36.19;99185.19;5111914;28;20421;-48
2021/09/01 07:12:08;;;;;;;19.67;7.72;;;;;;;27.81;35.50;99175.06;5111972;28;20065;-49
2021/09/01 07:14:33;;;;;;;29.50;12.25;;;;;;;28.40;34.37;99189.44;5093578;28;20118;-48
2021/09/01 07:16:59;;;;;;;14.70;7.18;;;;;;;29.04;33.04;99188.44;5110633;28;20110;-48
2021/09/01 07:19:25;;;;;;;16.70;7.50;;;;;;;29.66;32.00;99188.38;5102097;28;20054;-49
2021/09/01 07:21:51;;;;;;;10.45;8.40;;;;;;;30.05;31.02;99186.69;5111899;28;20035;-48
2021/09/01 07:24:16;;;;;;;17.08;7.13;;;;;;;30.26;30.71;99188.75;5093559;28;20595;-48
2021/09/01 07:26:42;;;;;;;19.67;6.82;;;;;;;30.54;30.36;99191.97;5111796;28;20038;-51
2021/09/01 07:29:08;;;;;;;9.80;7.20;;;;;;;30.15;30.75;99191.00;5111760;28;20036;-51
2021/09/01 07:31:33;;;;;;;13.63;7.18;;;;;;;30.31;30.67;99191.34;5114166;28;20553;-51
2021/09/01 07:33:59;;;;;;;14.20;6.80;;;;;;;30.64;29.81;99180.00;5097335;28;20028;-51
2021/09/01 07:36:25;;;;;;;21.40;7.82;;;;;;;30.96;29.52;99194.13;5115628;28;20164;-50
2021/09/01 07:38:51;;;;;;;9.80;6.18;;;;;;;31.39;29.10;99187.75;5115555;28;20497;-51
2021/09/01 07:41:17;;;;;;;17.70;8.00;;;;;;;31.76;28.49;99185.34;5115578;28;20050;-51
2021/09/01 07:43:43;;;;;;;11.93;7.30;;;;;;;31.87;27.99;99200.09;5097188;28;20023;-51
2021/09/01 07:46:15;;;;;;;8.35;6.85;;;;;;;31.96;28.08;99191.91;5115465;28;20020;-51
2021/09/01 07:48:40;;;;;;;12.02;6.50;;;;;;;32.10;28.07;99188.97;5097083;28;20031;-51
2021/09/01 07:51:06;;;;;;;10.57;6.82;;;;;;;32.18;27.83;99196.25;5115288;28;20030;-51
2021/09/01 07:53:32;;;;;;;7.57;6.78;;;;;;;32.49;27.60;99193.09;5115295;28;20056;-51
2021/09/01 07:55:58;;;;;;;14.60;7.95;;;;;;;32.44;27.31;99196.81;5096988;28;20492;-51
2021/09/01 07:58:24;;;;;;;11.10;7.00;;;;;;;32.23;27.64;99204.19;5115273;28;20051;-51
2021/09/01 08:00:49;;;;;;;11.68;7.35;;;;;;;32.61;27.55;99208.69;5096834;28;20074;-49
2021/09/01 08:03:15;;;;;;;15.05;7.88;;;;;;;33.01;26.74;99213.53;5115206;28;20023;-49
2021/09/01 08:05:41;;;;;;;7.72;6.13;;;;;;;33.21;26.46;99212.69;5096729;28;20020;-49
2021/09/01 08:08:07;;;;;;;13.85;6.93;;;;;;;33.23;26.22;99217.78;5096687;28;20038;-49
2021/09/01 08:10:33;;;;;;;8.95;6.57;;;;;;;32.95;26.87;99210.22;5114914;28;20431;-49
2021/09/01 08:12:58;;;;;;;20.35;7.32;;;;;;;31.41;28.60;99209.91;5114979;28;20481;-49
2021/09/01 08:15:24;;;;;;;17.23;7.25;;;;;;;31.32;28.99;99217.31;5114872;28;20664;-49
2021/09/01 08:17:50;;;;;;;8.38;6.68;;;;;;;31.76;28.34;99224.13;5114815;28;20016;-49
2021/09/01 08:20:16;;;;;;;16.67;7.60;;;;;;;32.51;27.40;99223.44;5114491;28;20479;-50
2021/09/01 08:22:42;;;;;;;45.72;41.92;;;;;;;32.29;27.71;99235.44;5114717;28;20035;-49
2021/09/01 08:25:10;;;;;;;30.13;17.95;;;;;;;32.09;28.44;99228.09;5114714;28;20024;-49
2021/09/01 08:27:36;;;;;;;10.10;6.90;;;;;;;32.59;27.39;99219.88;5114645;28;20821;-49
2021/09/01 08:30:03;;;;;;;10.95;8.27;;;;;;;33.02;26.92;99221.38;5114500;28;20533;-49
2021/09/01 08:32:29;;;;;;;10.57;7.15;;;;;;;33.55;26.43;99218.03;5114467;28;20028;-50
2021/09/01 08:34:55;;;;;;;12.80;9.32;;;;;;;33.50;26.08;99223.69;5114584;28;20031;-50
2021/09/01 08:37:20;;;;;;;13.60;7.93;;;;;;;33.08;26.77;99226.56;5114452;28;20028;-50
2021/09/01 08:39:46;;;;;;;12.18;8.13;;;;;;;32.43;27.19;99219.66;5114395;28;20023;-49
2021/09/01 08:42:13;;;;;;;12.95;11.57;;;;;;;31.33;28.37;99225.13;5095513;28;20161;-50
2021/09/01 08:44:40;;;;;;;13.60;6.55;;;;;;;30.98;29.46;99221.72;5114284;28;20508;-50
2021/09/01 08:47:06;;;;;;;10.32;5.88;;;;;;;31.33;28.79;99227.03;5114211;28;20572;-49
2021/09/01 08:49:31;;;;;;;17.85;6.38;;;;;;;31.84;28.21;99234.13;5095980;28;20023;-49
2021/09/01 08:51:59;;;;;;;13.38;5.90;;;;;;;32.29;27.50;99234.66;5114181;28;20038;-50
2021/09/01 08:54:25;;;;;;;12.50;7.63;;;;;;;32.73;27.39;99222.31;5114164;28;20020;-50
2021/09/01 08:56:54;;;;;;;9.93;5.93;;;;;;;32.88;26.74;99223.59;5114020;28;20516;-50
2021/09/01 08:59:20;;;;;;;6.70;5.78;;;;;;;32.89;26.70;99218.97;5114029;28;20110;-49
2021/09/01 09:01:48;;;;;;;11.63;6.28;;;;;;;32.86;26.99;99214.19;5113968;28;20527;-49
2021/09/01 09:04:34;;;;;;;13.45;6.28;;;;;;;32.59;27.40;99210.94;5113981;28;20027;-49
2021/09/01 09:07:07;;;;;;;22.20;7.15;;;;;;;32.82;27.17;99214.03;5096083;28;20027;-49
2021/09/01 09:09:35;;;;;;;11.77;6.25;;;;;;;33.01;27.09;99203.44;5113771;28;20024;-49
2021/09/01 09:12:03;;;;;;;7.65;5.68;;;;;;;33.48;26.41;99202.25;5095437;28;20058;-49
2021/09/01 09:14:30;;;;;;;8.73;5.50;;;;;;;33.89;25.82;99213.28;5095362;28;20027;-49
2021/09/01 09:17:12;;;;;;;10.15;6.55;;;;;;;34.33;25.37;99219.63;5113660;28;20282;-49
2021/09/01 09:19:51;;;;;;;11.93;6.65;;;;;;;34.48;25.12;99217.31;5112972;28;20056;-49
2021/09/01 09:22:28;;;;;;;8.07;6.28;;;;;;;34.38;25.49;99216.66;5095305;28;20030;-49
2021/09/01 09:25:14;;;;;;;11.85;6.60;;;;;;;34.97;24.64;99211.59;5113591;28;20035;-49
2021/09/01 09:27:46;;;;;;;10.07;6.30;;;;;;;35.26;24.36;99196.78;5095206;28;20040;-49
2021/09/01 09:30:23;;;;;;;11.52;6.68;;;;;;;35.66;24.00;99197.69;5113356;28;20031;-49
2021/09/01 09:33:06;;;;;;;13.18;6.35;;;;;;;35.43;23.88;99195.59;5113375;28;20019;-50
2021/09/01 09:35:59;;;;;;;12.02;8.35;;;;;;;35.10;24.67;99196.75;5113372;28;20408;-50
2021/09/01 09:38:27;;;;;;;12.75;6.80;;;;;;;35.24;24.19;99193.59;5104757;28;20039;-49
2021/09/01 09:40:54;;;;;;;8.60;5.82;;;;;;;35.55;23.80;99192.75;5113243;28;20034;-51
2021/09/01 09:43:22;;;;;;;9.50;5.70;;;;;;;35.89;23.50;99189.63;5094853;28;20024;-51
2021/09/01 09:45:57;;;;;;;7.05;6.20;;;;;;;36.15;23.14;99195.28;5094738;28;20030;-51
2021/09/01 09:48:31;;;;;;;8.68;6.35;;;;;;;36.23;23.00;99195.44;5113141;28;20030;-52
2021/09/01 09:50:57;;;;;;;12.15;6.75;;;;;;;36.71;22.75;99188.56;5094743;28;20059;-51
2021/09/01 09:53:50;;;;;;;13.02;7.15;;;;;;;37.02;22.49;99188.66;5112934;28;20020;-51
2021/09/01 09:56:18;;;;;;;18.05;5.95;;;;;;;36.99;22.26;99192.94;5113012;28;20035;-51
2021/09/01 09:58:56;;;;;;;11.50;6.75;;;;;;;37.27;22.01;99191.81;5094603;28;20024;-51
2021/09/01 10:01:24;;;;;;;8.38;6.00;;;;;;;37.35;21.57;99191.59;5112873;28;20051;-51
2021/09/01 10:03:51;;;;;;;8.25;5.90;;;;;;;37.16;22.34;99197.13;5112820;28;20023;-51
2021/09/01 10:06:18;;;;;;;7.55;5.03;;;;;;;37.35;22.21;99194.31;5112743;28;20046;-51
2021/09/01 10:08:53;;;;;;;7.70;4.30;;;;;;;37.39;21.98;99202.59;5112747;28;20032;-51
2021/09/01 10:11:21;;;;;;;8.70;4.30;;;;;;;37.15;22.02;99195.56;5112632;28;20558;-51
2021/09/01 10:13:49;;;;;;;7.88;4.45;;;;;;;37.19;21.84;99196.41;5112534;28;20055;-51
2021/09/01 10:16:22;;;;;;;7.30;5.07;;;;;;;37.29;21.58;99189.50;5112625;28;20023;-51
2021/09/01 10:19:04;;;;;;;8.50;3.95;;;;;;;36.68;22.57;99183.78;5094301;28;20134;-51
2021/09/01 10:21:36;;;;;;;17.73;5.82;;;;;;;36.82;22.67;99190.69;5112415;28;20043;-51
2021/09/01 10:24:23;;;;;;;9.80;4.90;;;;;;;37.16;22.32;99186.97;5112816;28;20028;-51
2021/09/01 10:27:03;;;;;;;12.13;5.07;;;;;;;37.32;21.91;99180.56;5094199;28;20032;-51
2021/09/01 10:29:57;;;;;;;6.65;4.75;;;;;;;37.02;22.45;99189.44;5112459;28;20024;-50
2021/09/01 10:32:46;;;;;;;12.57;6.47;;;;;;;36.99;22.02;99190.97;5112443;28;20028;-51
2021/09/01 10:35:12;;;;;;;8.65;4.93;;;;;;;36.85;22.54;99189.97;5112384;28;20058;-51
2021/09/01 10:37:43;;;;;;;6.20;4.78;;;;;;;36.57;23.11;99188.25;5112204;28;20062;-51
2021/09/01 10:40:13;;;;;;;7.15;4.45;;;;;;;36.51;22.80;99189.72;5112347;28;20027;-51
2021/09/01 10:42:42;;;;;;;8.35;4.90;;;;;;;36.56;22.58;99187.47;5112255;28;20106;-52
2021/09/01 10:45:12;;;;;;;20.20;5.95;;;;;;;36.64;22.84;99182.94;5112213;28;20098;-52
2021/09/01 10:48:05;;;;;;;12.63;4.82;;;;;;;36.69;22.75;99181.88;5112165;28;20392;-51
2021/09/01 10:50:34;;;;;;;7.50;4.00;;;;;;;36.74;22.50;99181.56;5103810;28;20063;-51
2021/09/01 10:53:20;;;;;;;20.92;12.07;;;;;;;36.30;23.12;99184.63;5112169;28;20254;-51
2021/09/01 10:56:02;;;;;;;9.00;4.90;;;;;;;36.12;23.33;99182.31;5112095;28;20028;-52
2021/09/01 10:58:36;;;;;;;8.15;5.10;;;;;;;36.19;22.77;99182.47;5112370;28;20028;-51
2021/09/01 11:01:21;;;;;;;10.55;5.68;;;;;;;35.64;23.75;99176.19;5093845;28;20031;-51
2021/09/01 11:04:02;;;;;;;10.68;7.97;;;;;;;35.94;23.64;99172.94;5112048;28;20027;-51
2021/09/01 11:06:36;;;;;;;8.20;5.30;;;;;;;36.23;23.43;99174.34;5114093;28;20019;-51
2021/09/01 11:09:12;;;;;;;8.90;6.13;;;;;;;36.37;23.18;99173.84;5116179;28;20027;-52
2021/09/01 11:11:51;;;;;;;8.27;4.60;;;;;;;36.32;22.74;99165.91;5116117;28;20032;-52
2021/09/01 11:14:39;;;;;;;9.95;4.65;;;;;;;36.30;22.90;99158.09;5116082;28;20405;-51
2021/09/01 11:17:26;;;;;;;5.25;3.97;;;;;;;36.60;22.61;99165.66;5097785;28;20045;-52
2021/09/01 11:19:58;;;;;;;18.67;6.57;;;;;;;36.39;22.90;99157.84;5115614;28;20066;-52
2021/09/01 11:22:26;;;;;;;5.28;4.18;;;;;;;36.31;23.08;99164.34;5115936;28;20015;-52
2021/09/01 11:24:59;;;;;;;9.95;4.20;;;;;;;36.58;22.97;99162.47;5115941;28;20057;-52
2021/09/01 11:27:26;;;;;;;4.18;3.75;;;;;;;36.50;23.16;99160.78;5115915;28;20023;-52
2021/09/01 11:30:12;;;;;;;7.15;4.00;;;;;;;36.27;23.09;99171.69;5115705;28;20063;-52